aviador You're here:

KAAF Decoded Metar

APALACHICOLA in FL, USA
Report Time2018-06-19 07:53:00
UTC Time2018-06-19 08:22:57
Flight Rules vfr VFR
Wind330° at 03 kt
W.Decomp.*RWY 32: 2.9 kt HW 0.7 kt RCW
RWY 36: 2.7 kt HW 1.4 kt LCW
RWY 06: 0.2 kt HW 3 kt LCW
W.Rank330° ranks 25
Current wind is below 330° avg. (6.4)
Visibility9999 m
Phenomena:N/A
Clouds:N/A
CeilingNone
Temp25°C (ISA +10)
Dew Point25°C (100% RH)
QNH1017 hPa
Density Alt1,457 ft
Elevation16 ft
Report Wrong Elevation
Raw Report
METAR KAAF 190753Z AUTO 33003KT 10SM CLR 25/25 A3002 RMK AO2 SLP166
T02500250=

Extra information for KAAF:More info

Metar Taf Metar & Taf Last 4 Metars F.Rules Stats Wind Profile Meteogram Temp Stats Airport Information Weather charts Add Link Nearby VenuesMetar ALERT Operation Metar Decoded Social comments

AIRNAV info for KAAF